Time;durP1;ratioP1;P1;durP2;ratioP2;P2;SDS_P1;SDS_P2;PMS_P1;PMS_P2;Temp;Humidity;BMP_temperature;BMP_pressure;BME280_temperature;BME280_humidity;BME280_pressure;Samples;Min_cycle;Max_cycle;Signal;HPM_P1;HPM_P2
2022/06/30 00:00:41;;;;;;;5.23;4.73;;;22.40;99.90;;;;;;5096056;28;20550;-56
2022/06/30 00:03:08;;;;;;;4.90;4.10;;;22.40;99.90;;;;;;5096504;28;20821;-57
2022/06/30 00:05:35;;;;;;;4.80;4.40;;;22.60;99.90;;;;;;5096327;28;20509;-57
2022/06/30 00:08:03;;;;;;;5.60;5.20;;;22.50;99.90;;;;;;5096511;28;20445;-57
2022/06/30 00:10:32;;;;;;;5.50;5.00;;;22.20;99.90;;;;;;5096115;28;20562;-57
2022/06/30 00:12:59;;;;;;;5.03;4.30;;;22.10;99.90;;;;;;5096091;28;20463;-57
2022/06/30 00:15:26;;;;;;;5.80;4.30;;;22.20;99.90;;;;;;5095684;28;20954;-56
2022/06/30 00:17:53;;;;;;;4.93;4.47;;;22.30;99.90;;;;;;5096023;28;20541;-57
2022/06/30 00:20:21;;;;;;;5.47;4.20;;;22.40;99.90;;;;;;5095918;28;20564;-57
2022/06/30 00:22:48;;;;;;;5.40;4.60;;;22.50;99.90;;;;;;5095807;28;20451;-57
2022/06/30 00:25:17;;;;;;;5.00;4.60;;;22.50;99.90;;;;;;5095592;28;20474;-57
2022/06/30 00:27:46;;;;;;;6.97;4.80;;;22.50;99.90;;;;;;5095814;28;20478;-57
2022/06/30 00:30:14;;;;;;;4.77;4.33;;;22.20;99.90;;;;;;5095892;28;20494;-57
2022/06/30 00:32:41;;;;;;;6.37;4.53;;;21.90;99.90;;;;;;5095890;28;20458;-57
2022/06/30 00:35:08;;;;;;;4.57;4.10;;;22.00;99.90;;;;;;5095388;28;20490;-56
2022/06/30 00:37:36;;;;;;;5.17;4.67;;;21.90;99.90;;;;;;5095801;28;20450;-56
2022/06/30 00:40:03;;;;;;;6.67;5.07;;;21.70;99.90;;;;;;5095256;28;20525;-56
2022/06/30 00:42:31;;;;;;;6.30;4.63;;;21.60;99.90;;;;;;5095281;28;20462;-57
2022/06/30 00:44:59;;;;;;;8.03;5.13;;;21.40;99.90;;;;;;5095182;28;20451;-57
2022/06/30 00:47:27;;;;;;;6.50;4.77;;;21.40;99.90;;;;;;5095560;28;20883;-57
2022/06/30 00:49:54;;;;;;;4.60;4.20;;;21.60;99.90;;;;;;5094094;28;20973;-57
2022/06/30 00:52:25;;;;;;;5.53;4.57;;;21.80;99.90;;;;;;5095621;28;20454;-57
2022/06/30 00:54:53;;;;;;;8.60;5.53;;;21.90;99.90;;;;;;5094985;28;20474;-56
2022/06/30 00:57:23;;;;;;;7.50;5.17;;;22.00;99.90;;;;;;5095578;28;20450;-56
2022/06/30 00:59:54;;;;;;;5.50;5.10;;;22.00;99.90;;;;;;5095165;28;20467;-56
2022/06/30 01:02:23;;;;;;;6.23;5.50;;;21.80;99.90;;;;;;5094960;28;20930;-57
2022/06/30 01:04:53;;;;;;;5.73;5.17;;;21.70;99.90;;;;;;5095052;28;20443;-56
2022/06/30 01:07:23;;;;;;;6.30;5.80;;;21.70;99.90;;;;;;5095180;28;20444;-56
2022/06/30 01:12:44;;;;;;;7.20;6.00;;;21.70;99.90;;;;;;5095169;28;20477;-56
2022/06/30 01:15:12;;;;;;;6.70;6.07;;;21.70;99.90;;;;;;5094575;28;20490;-57
2022/06/30 01:17:41;;;;;;;8.40;5.93;;;21.80;99.90;;;;;;5094910;28;20443;-57
2022/06/30 01:20:09;;;;;;;6.20;5.70;;;21.90;99.90;;;;;;5094593;28;20969;-57
2022/06/30 01:22:38;;;;;;;6.03;5.33;;;21.60;99.90;;;;;;5094582;28;20754;-57
2022/06/30 01:25:06;;;;;;;5.47;4.97;;;21.50;99.90;;;;;;5094698;28;20439;-57
2022/06/30 01:27:34;;;;;;;6.13;5.63;;;21.40;99.90;;;;;;5094493;28;20428;-57
2022/06/30 01:30:01;;;;;;;5.77;5.27;;;21.40;99.90;;;;;;5094423;28;20946;-57
2022/06/30 01:32:29;;;;;;;6.17;5.23;;;21.60;99.90;;;;;;5094471;28;20960;-58
2022/06/30 01:34:57;;;;;;;8.20;5.60;;;21.50;99.90;;;;;;5094736;28;20611;-58
2022/06/30 01:37:24;;;;;;;7.07;5.20;;;21.20;99.90;;;;;;5094324;28;20450;-56
2022/06/30 01:39:53;;;;;;;6.73;6.13;;;21.10;99.90;;;;;;5094462;28;20800;-56
2022/06/30 01:42:20;;;;;;;6.27;5.77;;;21.20;99.90;;;;;;5094151;28;20459;-56
2022/06/30 01:44:47;;;;;;;6.40;5.80;;;20.90;99.90;;;;;;5093960;28;20954;-57
2022/06/30 01:47:14;;;;;;;5.93;5.33;;;20.90;99.90;;;;;;5094495;28;20447;-57
2022/06/30 01:49:42;;;;;;;6.47;5.60;;;20.90;99.90;;;;;;5094218;28;20642;-57
2022/06/30 01:52:09;;;;;;;6.10;5.60;;;20.90;99.90;;;;;;5094100;28;20930;-57
2022/06/30 01:54:36;;;;;;;6.87;6.27;;;20.80;99.90;;;;;;5094145;28;20515;-57
2022/06/30 01:57:06;;;;;;;6.00;5.50;;;20.90;99.90;;;;;;5094009;28;20447;-57
2022/06/30 01:59:33;;;;;;;8.73;6.10;;;20.70;99.90;;;;;;5093434;28;20499;-56
2022/06/30 02:02:00;;;;;;;8.03;5.40;;;21.00;99.90;;;;;;5094040;28;20949;-58
2022/06/30 02:07:11;;;;;;;7.43;6.23;;;21.40;99.90;;;;;;5093936;28;20782;-57
2022/06/30 02:09:39;;;;;;;6.13;5.50;;;21.10;99.90;;;;;;5094041;28;20469;-59
2022/06/30 02:14:53;;;;;;;7.93;6.30;;;20.90;99.90;;;;;;5093516;28;20482;-56
2022/06/30 02:17:20;;;;;;;8.90;6.80;;;21.00;99.90;;;;;;5093817;28;20447;-57
2022/06/30 02:19:47;;;;;;;7.17;6.57;;;21.00;99.90;;;;;;5093935;28;20466;-57
2022/06/30 02:22:15;;;;;;;7.97;7.17;;;21.10;99.90;;;;;;5093425;28;20443;-57
2022/06/30 02:24:42;;;;;;;8.73;6.50;;;21.10;99.90;;;;;;5093630;28;20808;-57
2022/06/30 02:27:11;;;;;;;7.70;6.53;;;21.10;99.90;;;;;;5093413;28;20444;-57
2022/06/30 02:29:38;;;;;;;9.03;6.30;;;21.20;99.90;;;;;;5093397;28;20966;-56
2022/06/30 02:32:06;;;;;;;6.57;5.97;;;21.20;99.90;;;;;;5093326;28;20930;-57
2022/06/30 02:34:33;;;;;;;6.67;5.97;;;21.20;99.90;;;;;;5093597;28;20482;-57
2022/06/30 02:37:00;;;;;;;6.00;5.40;;;20.90;99.90;;;;;;5093532;28;20443;-57
2022/06/30 02:39:27;;;;;;;8.50;6.60;;;20.70;99.90;;;;;;5093598;28;20469;-57
2022/06/30 02:41:54;;;;;;;11.03;6.40;;;20.60;99.90;;;;;;5093028;28;20937;-57
2022/06/30 02:44:23;;;;;;;8.10;7.27;;;20.60;99.90;;;;;;5093501;28;20432;-57
2022/06/30 02:46:50;;;;;;;6.93;6.33;;;20.60;99.90;;;;;;5093091;28;20963;-56
2022/06/30 02:49:18;;;;;;;7.40;6.80;;;20.60;99.90;;;;;;5093433;28;20495;-56
2022/06/30 02:51:45;;;;;;;7.13;6.50;;;20.70;99.90;;;;;;5093317;28;20439;-56
2022/06/30 02:54:12;;;;;;;7.13;6.53;;;20.80;99.90;;;;;;5093341;28;20850;-56
2022/06/30 02:56:40;;;;;;;10.50;7.00;;;20.90;99.90;;;;;;5093268;28;20432;-57
2022/06/30 02:59:07;;;;;;;7.17;6.53;;;21.00;99.90;;;;;;5093223;28;20450;-57
2022/06/30 03:01:36;;;;;;;9.40;6.63;;;21.00;99.90;;;;;;5093076;28;20447;-57
2022/06/30 03:04:03;;;;;;;7.90;7.13;;;20.80;99.90;;;;;;5092866;28;20444;-56
2022/06/30 03:06:32;;;;;;;6.70;6.10;;;20.50;99.90;;;;;;5093296;28;20435;-56
2022/06/30 03:09:00;;;;;;;6.00;5.50;;;20.30;99.90;;;;;;5093071;28;20454;-56
2022/06/30 03:11:27;;;;;;;6.50;6.00;;;20.40;99.90;;;;;;5093264;28;20444;-56
2022/06/30 03:13:54;;;;;;;6.70;6.17;;;20.50;99.90;;;;;;5096960;28;20483;-57
2022/06/30 03:16:22;;;;;;;7.93;7.20;;;20.60;99.90;;;;;;5097300;28;20486;-57
2022/06/30 03:18:52;;;;;;;7.27;5.77;;;20.70;99.90;;;;;;5097184;28;20443;-57
2022/06/30 03:21:20;;;;;;;7.07;6.47;;;20.60;99.90;;;;;;5097358;28;20799;-57
2022/06/30 03:23:47;;;;;;;7.17;5.70;;;20.40;99.90;;;;;;5097117;28;20841;-57
2022/06/30 03:26:16;;;;;;;7.70;6.97;;;20.30;99.90;;;;;;5097020;28;20439;-57
2022/06/30 03:28:43;;;;;;;10.77;6.47;;;20.30;99.90;;;;;;5096998;28;20451;-56
2022/06/30 03:31:10;;;;;;;6.60;6.00;;;20.40;99.90;;;;;;5097033;28;20463;-57
2022/06/30 03:33:38;;;;;;;7.10;6.10;;;20.50;99.90;;;;;;5096996;28;20443;-57
2022/06/30 03:36:06;;;;;;;6.90;6.30;;;20.60;99.90;;;;;;5096608;28;20880;-57
2022/06/30 03:38:33;;;;;;;7.27;6.00;;;20.60;99.90;;;;;;5096801;28;20447;-57
2022/06/30 03:41:00;;;;;;;6.40;5.80;;;20.70;99.90;;;;;;5096644;28;20841;-57
2022/06/30 03:43:27;;;;;;;7.33;5.80;;;20.70;99.90;;;;;;5096961;28;20466;-57
2022/06/30 03:45:55;;;;;;;6.90;6.20;;;20.70;99.90;;;;;;5096517;28;20446;-57
2022/06/30 03:48:22;;;;;;;6.73;5.90;;;20.70;99.90;;;;;;5096296;28;20904;-61
2022/06/30 03:50:49;;;;;;;7.03;5.90;;;20.40;99.90;;;;;;5096496;28;20474;-57
2022/06/30 03:53:17;;;;;;;6.03;5.53;;;20.30;99.90;;;;;;5096310;28;20487;-57
2022/06/30 03:55:45;;;;;;;8.13;5.80;;;20.20;99.90;;;;;;5096587;28;20485;-57
2022/06/30 03:58:12;;;;;;;8.00;6.20;;;20.30;99.90;;;;;;5096405;28;20458;-57
2022/06/30 04:00:39;;;;;;;7.27;6.57;;;20.50;99.90;;;;;;5096507;28;20485;-57
2022/06/30 04:03:07;;;;;;;7.83;6.50;;;20.60;99.90;;;;;;5096324;28;20444;-57
2022/06/30 04:05:35;;;;;;;6.63;6.03;;;20.60;99.90;;;;;;5096129;28;20454;-57
2022/06/30 04:08:02;;;;;;;7.67;6.27;;;20.60;99.90;;;;;;5096064;28;20786;-56
2022/06/30 04:10:31;;;;;;;6.80;6.03;;;20.70;99.90;;;;;;5096627;28;20475;-56
2022/06/30 04:12:58;;;;;;;5.63;5.10;;;20.80;99.90;;;;;;5096429;28;20545;-56
2022/06/30 04:15:26;;;;;;;9.20;5.90;;;20.70;99.90;;;;;;5095692;28;20497;-57
2022/06/30 04:17:53;;;;;;;7.10;6.40;;;20.60;99.90;;;;;;5095873;28;20538;-56
2022/06/30 04:20:20;;;;;;;6.27;5.67;;;20.50;99.90;;;;;;5095967;28;20498;-56
2022/06/30 04:22:49;;;;;;;6.10;5.60;;;20.40;99.90;;;;;;5095747;28;20547;-56
2022/06/30 04:25:16;;;;;;;7.33;6.60;;;20.30;99.90;;;;;;5096082;28;20472;-56
2022/06/30 04:27:47;;;;;;;6.90;6.20;;;20.00;99.90;;;;;;5095767;28;21005;-56
2022/06/30 04:30:15;;;;;;;7.07;6.50;;;20.00;99.90;;;;;;5095531;28;20467;-56
2022/06/30 04:32:42;;;;;;;6.87;6.13;;;20.20;99.90;;;;;;5095669;28;20530;-57
2022/06/30 04:35:11;;;;;;;8.50;6.27;;;20.30;99.90;;;;;;5095469;28;20503;-57
2022/06/30 04:37:39;;;;;;;8.63;7.43;;;20.20;99.90;;;;;;5095635;28;20922;-57
2022/06/30 04:42:53;;;;;;;5.50;5.10;;;20.40;99.90;;;;;;5095720;28;20433;-56
2022/06/30 04:45:20;;;;;;;7.80;7.20;;;20.50;99.90;;;;;;5095537;28;20444;-56
2022/06/30 04:47:48;;;;;;;7.30;6.70;;;20.60;99.90;;;;;;5095280;28;20950;-57
2022/06/30 04:50:15;;;;;;;6.77;6.13;;;20.70;99.90;;;;;;5095481;28;20459;-57
2022/06/30 04:52:42;;;;;;;6.37;5.77;;;20.70;99.90;;;;;;5095286;28;20483;-57
2022/06/30 04:55:10;;;;;;;7.10;6.00;;;20.70;99.90;;;;;;5095489;28;20502;-57
2022/06/30 04:57:37;;;;;;;8.93;6.60;;;20.70;99.90;;;;;;5095068;28;20560;-57
2022/06/30 05:00:08;;;;;;;7.93;6.70;;;20.80;99.90;;;;;;5094998;28;20876;-57
2022/06/30 05:02:35;;;;;;;7.93;7.13;;;20.70;99.90;;;;;;5095345;28;20853;-57
2022/06/30 05:05:02;;;;;;;7.57;6.87;;;20.70;99.90;;;;;;5094873;28;20447;-57
2022/06/30 05:07:29;;;;;;;6.27;5.77;;;20.70;99.90;;;;;;5095017;28;20443;-56
2022/06/30 05:09:57;;;;;;;7.33;6.63;;;20.60;99.90;;;;;;5094867;28;20467;-57
2022/06/30 05:12:24;;;;;;;7.13;6.43;;;20.60;99.90;;;;;;5094849;28;20465;-57
2022/06/30 05:14:51;;;;;;;7.20;6.50;;;20.70;99.90;;;;;;5094496;28;20482;-57
2022/06/30 05:17:20;;;;;;;7.70;6.97;;;20.70;99.90;;;;;;5094976;28;20479;-56
2022/06/30 05:19:47;;;;;;;7.70;7.00;;;20.80;99.90;;;;;;5094812;28;20910;-57
2022/06/30 05:22:14;;;;;;;11.97;7.77;;;20.80;99.90;;;;;;5094828;28;20530;-57
2022/06/30 05:27:26;;;;;;;8.63;7.60;;;21.30;99.90;;;;;;5094438;28;20403;-57
2022/06/30 05:29:54;;;;;;;7.20;6.63;;;21.50;99.90;;;;;;5094420;28;20557;-57
2022/06/30 05:32:23;;;;;;;7.00;6.40;;;21.60;99.90;;;;;;5094106;28;20448;-57
2022/06/30 05:34:50;;;;;;;8.80;6.33;;;21.60;99.90;;;;;;5093813;28;20472;-57
2022/06/30 05:37:17;;;;;;;9.33;6.53;;;21.80;99.90;;;;;;5094149;28;20475;-57
2022/06/30 05:39:45;;;;;;;8.03;6.60;;;21.90;99.90;;;;;;5094080;28;20898;-57
2022/06/30 05:42:12;;;;;;;7.70;6.93;;;21.90;99.90;;;;;;5094126;28;20470;-57
2022/06/30 05:44:39;;;;;;;8.47;7.57;;;22.00;99.90;;;;;;5093662;28;20535;-57
2022/06/30 05:47:06;;;;;;;7.73;7.03;;;21.80;99.90;;;;;;5094320;28;20443;-57
2022/06/30 05:49:37;;;;;;;8.53;7.73;;;21.70;99.90;;;;;;5094104;28;20467;-57
2022/06/30 05:52:05;;;;;;;9.40;7.40;;;21.80;99.90;;;;;;5093778;28;20515;-57
2022/06/30 05:54:32;;;;;;;13.07;7.33;;;21.70;99.90;;;;;;5093948;28;20521;-57
2022/06/30 05:56:59;;;;;;;8.27;7.47;;;21.70;99.90;;;;;;5094232;28;20580;-57
2022/06/30 05:59:27;;;;;;;8.87;7.97;;;21.80;99.90;;;;;;5093536;28;21008;-57
2022/06/30 06:01:54;;;;;;;7.67;7.03;;;21.80;99.90;;;;;;5094299;28;20474;-57
2022/06/30 06:04:21;;;;;;;8.90;7.97;;;21.80;99.90;;;;;;5093833;28;20546;-57
2022/06/30 06:06:49;;;;;;;8.33;7.50;;;21.80;99.90;;;;;;5093666;28;20550;-57
2022/06/30 06:09:17;;;;;;;9.20;8.40;;;22.00;99.90;;;;;;5093570;28;20478;-57
2022/06/30 06:11:44;;;;;;;9.17;8.20;;;21.90;99.90;;;;;;5093881;28;20447;-57
2022/06/30 06:14:12;;;;;;;11.00;7.83;;;21.90;99.90;;;;;;5093236;28;20455;-57
2022/06/30 06:16:39;;;;;;;7.47;6.83;;;22.00;99.90;;;;;;5093458;28;20490;-57
2022/06/30 06:19:06;;;;;;;13.00;8.67;;;22.10;99.90;;;;;;5093508;28;20475;-57
2022/06/30 06:21:36;;;;;;;10.13;8.30;;;22.10;99.90;;;;;;5093716;28;20875;-56
2022/06/30 06:24:04;;;;;;;14.40;8.67;;;22.20;99.90;;;;;;5093658;28;20448;-57
2022/06/30 06:26:31;;;;;;;9.23;8.40;;;22.30;99.90;;;;;;5093198;28;20486;-57
2022/06/30 06:29:08;;;;;;;11.80;8.07;;;22.40;99.90;;;;;;5092979;28;20483;-57
2022/06/30 06:31:37;;;;;;;9.23;7.97;;;22.50;99.90;;;;;;5093322;28;20435;-57
2022/06/30 06:34:04;;;;;;;12.53;8.83;;;22.50;99.90;;;;;;5093383;28;20600;-57
2022/06/30 06:36:32;;;;;;;8.40;7.23;;;22.50;99.90;;;;;;5092942;28;20845;-57
2022/06/30 06:38:59;;;;;;;8.60;7.90;;;22.50;99.90;;;;;;5092636;28;20530;-57
2022/06/30 06:41:28;;;;;;;9.80;8.80;;;22.60;99.90;;;;;;5093318;28;20497;-57
2022/06/30 06:43:56;;;;;;;10.13;8.97;;;22.60;99.90;;;;;;5093105;28;20560;-57
2022/06/30 06:46:26;;;;;;;9.67;8.10;;;22.60;99.90;;;;;;5092220;28;20530;-57
2022/06/30 06:48:55;;;;;;;10.93;9.93;;;22.70;99.90;;;;;;5092912;28;20448;-57
2022/06/30 06:51:22;;;;;;;8.30;7.50;;;22.70;99.90;;;;;;5093344;28;20451;-57
2022/06/30 06:53:50;;;;;;;8.67;7.87;;;22.70;99.90;;;;;;5092872;28;20483;-57
2022/06/30 06:56:17;;;;;;;9.50;8.67;;;22.80;99.90;;;;;;5093013;28;20838;-57
2022/06/30 06:58:46;;;;;;;9.43;8.63;;;23.00;99.90;;;;;;5092848;28;20455;-57
2022/06/30 07:01:13;;;;;;;9.63;8.10;;;23.20;99.90;;;;;;5093404;28;20463;-57
2022/06/30 07:03:41;;;;;;;8.80;7.93;;;23.40;99.90;;;;;;5092652;28;20450;-57
2022/06/30 07:06:09;;;;;;;11.23;8.47;;;24.10;99.90;;;;;;5092470;28;20538;-57
2022/06/30 07:08:36;;;;;;;13.00;8.70;;;24.80;99.90;;;;;;5092599;28;20447;-57
2022/06/30 07:11:04;;;;;;;7.63;6.83;;;25.20;99.90;;;;;;5092614;28;20467;-57
2022/06/30 07:13:32;;;;;;;7.10;6.50;;;26.00;99.90;;;;;;5092698;28;20455;-58
2022/06/30 07:16:01;;;;;;;7.47;6.77;;;26.60;99.90;;;;;;5092532;28;21061;-58
2022/06/30 07:18:29;;;;;;;8.40;6.80;;;27.10;99.90;;;;;;5092651;28;20523;-57
2022/06/30 07:20:57;;;;;;;6.40;5.73;;;27.60;99.90;;;;;;5092929;28;20554;-57
2022/06/30 07:23:24;;;;;;;7.20;6.70;;;27.60;99.90;;;;;;5092920;28;20446;-58
2022/06/30 07:25:51;;;;;;;8.33;7.57;;;27.90;99.90;;;;;;5092486;28;20989;-57
2022/06/30 07:28:19;;;;;;;7.10;6.40;;;28.20;99.90;;;;;;5092547;28;20440;-57
2022/06/30 07:30:46;;;;;;;8.80;6.40;;;28.70;99.90;;;;;;5092799;28;20524;-58
2022/06/30 07:33:14;;;;;;;11.13;7.00;;;28.70;99.90;;;;;;5092495;28;20542;-58
2022/06/30 07:35:42;;;;;;;6.43;5.93;;;29.00;99.90;;;;;;5091875;28;20479;-58
2022/06/30 07:38:09;;;;;;;8.23;7.10;;;29.00;99.90;;;;;;5092200;28;20518;-58
2022/06/30 07:40:36;;;;;;;7.10;6.40;;;29.20;99.90;;;;;;5091086;28;20974;-58
2022/06/30 07:43:03;;;;;;;12.80;7.67;;;29.30;99.90;;;;;;5094110;28;20470;-58
2022/06/30 07:45:31;;;;;;;7.03;6.20;;;29.40;99.90;;;;;;5101463;28;20547;-58
2022/06/30 07:47:58;;;;;;;9.17;6.67;;;29.60;99.90;;;;;;5112406;28;20438;-59
2022/06/30 07:50:27;;;;;;;7.27;6.57;;;30.00;99.90;;;;;;5112838;28;20561;-59
2022/06/30 07:52:54;;;;;;;6.93;6.30;;;30.30;99.90;;;;;;5113014;28;20789;-59
2022/06/30 07:55:23;;;;;;;8.07;6.40;;;29.80;99.90;;;;;;5112895;28;20454;-59
2022/06/30 07:57:50;;;;;;;6.50;5.90;;;30.30;99.90;;;;;;5113681;28;20482;-59
2022/06/30 08:00:24;;;;;;;7.23;6.00;;;30.30;99.90;;;;;;5116299;28;20523;-59
2022/06/30 08:02:52;;;;;;;7.53;6.30;;;;;;;;;;5116417;28;20449;-59
2022/06/30 08:05:19;;;;;;;11.70;6.43;;;30.90;99.90;;;;;;5116000;28;20533;-59
2022/06/30 08:07:48;;;;;;;6.07;5.47;;;31.30;99.90;;;;;;5116522;28;20441;-59
2022/06/30 08:10:16;;;;;;;6.63;5.83;;;31.20;99.90;;;;;;5116220;28;21043;-59
2022/06/30 08:12:43;;;;;;;12.43;5.87;;;31.10;99.90;;;;;;5116535;28;20453;-59
2022/06/30 08:15:11;;;;;;;7.00;5.63;;;31.10;99.90;;;;;;5115634;28;20829;-58
2022/06/30 08:17:38;;;;;;;5.77;5.37;;;31.40;99.90;;;;;;5116416;28;20531;-59
2022/06/30 08:20:07;;;;;;;14.10;5.73;;;31.70;99.90;;;;;;5116217;28;20494;-58
2022/06/30 08:22:34;;;;;;;9.73;5.87;;;31.70;99.90;;;;;;5116444;28;20822;-58
2022/06/30 08:25:04;;;;;;;10.03;5.80;;;31.40;99.50;;;;;;5116271;28;20473;-59
2022/06/30 08:27:31;;;;;;;6.87;5.37;;;31.90;99.90;;;;;;5116414;28;20442;-58
2022/06/30 08:29:58;;;;;;;9.80;5.33;;;31.90;99.90;;;;;;5115833;28;20472;-59
2022/06/30 08:32:25;;;;;;;6.70;6.10;;;31.80;99.50;;;;;;5116279;28;20450;-59
2022/06/30 08:34:52;;;;;;;6.57;6.07;;;31.90;99.70;;;;;;5116070;28;20442;-59
2022/06/30 08:37:20;;;;;;;7.63;5.80;;;32.10;99.30;;;;;;5116067;28;20478;-58
2022/06/30 08:42:36;;;;;;;7.43;5.60;;;32.20;98.10;;;;;;5115978;28;20432;-58
2022/06/30 08:45:17;;;;;;;6.50;5.87;;;32.50;98.30;;;;;;5115669;28;20509;-58
2022/06/30 08:47:45;;;;;;;5.60;5.10;;;32.30;97.50;;;;;;5115380;28;20431;-59
2022/06/30 08:50:14;;;;;;;6.40;5.13;;;32.50;96.90;;;;;;5115473;28;20476;-58
2022/06/30 08:52:45;;;;;;;5.33;4.83;;;32.70;97.40;;;;;;5115206;28;20482;-58
2022/06/30 08:55:14;;;;;;;6.00;5.40;;;33.20;96.00;;;;;;5115295;28;20450;-56
2022/06/30 08:57:44;;;;;;;8.13;5.90;;;33.00;96.20;;;;;;5115418;28;20527;-58
2022/06/30 09:00:14;;;;;;;6.20;5.10;;;33.30;95.40;;;;;;5115117;28;20476;-58
2022/06/30 09:02:41;;;;;;;6.30;4.90;;;33.60;94.90;;;;;;5115036;28;20479;-58
2022/06/30 09:05:09;;;;;;;5.03;4.63;;;33.20;93.10;;;;;;5115072;28;20446;-58
2022/06/30 09:07:37;;;;;;;8.73;4.53;;;33.10;92.50;;;;;;5114886;28;20625;-58
2022/06/30 09:10:05;;;;;;;4.97;4.07;;;33.30;91.90;;;;;;5114088;28;20503;-58
2022/06/30 09:12:33;;;;;;;5.90;4.47;;;33.50;92.10;;;;;;5115076;28;20458;-58
2022/06/30 09:15:03;;;;;;;4.80;4.00;;;34.20;91.70;;;;;;5114554;28;20560;-59
2022/06/30 09:17:31;;;;;;;4.50;4.10;;;33.60;90.60;;;;;;5114565;28;20565;-59
2022/06/30 09:20:01;;;;;;;4.77;3.80;;;33.80;90.40;;;;;;5114415;28;20516;-59
2022/06/30 09:22:30;;;;;;;5.60;3.53;;;33.70;85.80;;;;;;5114578;28;20830;-58
2022/06/30 09:24:59;;;;;;;4.90;3.90;;;33.40;89.50;;;;;;5114644;28;20480;-58
2022/06/30 09:27:29;;;;;;;5.23;4.57;;;32.70;88.90;;;;;;5114841;28;20442;-58
2022/06/30 09:30:03;;;;;;;5.57;4.20;;;33.60;90.40;;;;;;5114560;28;20470;-58
2022/06/30 09:32:30;;;;;;;4.80;4.30;;;33.70;86.30;;;;;;5115035;27;20496;-59
2022/06/30 09:35:09;;;;;;;3.70;3.33;;;33.30;88.30;;;;;;5114379;28;20452;-58
2022/06/30 09:37:37;;;;;;;3.43;3.13;;;33.30;86.30;;;;;;5114825;28;20470;-58
2022/06/30 09:40:08;;;;;;;4.13;3.77;;;33.20;83.50;;;;;;5114496;28;20960;-58
2022/06/30 09:42:41;;;;;;;4.93;4.07;;;33.20;84.40;;;;;;5114218;28;20831;-59
2022/06/30 09:45:12;;;;;;;4.30;3.50;;;33.50;84.20;;;;;;5114054;28;21004;-59
2022/06/30 09:47:53;;;;;;;6.33;3.97;;;34.40;79.50;;;;;;5114323;28;20454;-58
2022/06/30 09:50:21;;;;;;;5.43;3.60;;;35.00;78.70;;;;;;5114027;28;20470;-59
2022/06/30 09:53:08;;;;;;;3.23;2.90;;;34.90;75.20;;;;;;5114519;28;20445;-59
2022/06/30 09:55:44;;;;;;;4.57;3.60;;;34.50;70.80;;;;;;5114086;28;20463;-58
2022/06/30 09:58:13;;;;;;;5.10;3.57;;;34.00;73.30;;;;;;5114270;28;20971;-59
2022/06/30 10:00:47;;;;;;;5.20;3.97;;;34.20;73.10;;;;;;5113855;28;20529;-59
2022/06/30 10:03:16;;;;;;;3.57;3.23;;;34.50;75.10;;;;;;5114148;28;20454;-59
2022/06/30 10:05:44;;;;;;;4.77;4.30;;;34.50;72.20;;;;;;5114039;28;20943;-59
2022/06/30 10:08:12;;;;;;;5.10;3.80;;;34.40;73.40;;;;;;5114010;28;20438;-58
2022/06/30 10:10:41;;;;;;;7.83;5.20;;;34.10;79.60;;;;;;5114308;28;20465;-59
2022/06/30 10:13:13;;;;;;;4.13;3.73;;;34.70;76.50;;;;;;5113552;28;20477;-58
2022/06/30 10:15:41;;;;;;;4.70;4.07;;;34.50;77.00;;;;;;5114258;28;20426;-58
2022/06/30 10:18:11;;;;;;;5.30;4.33;;;34.30;79.60;;;;;;5113549;28;20838;-59
2022/06/30 10:20:39;;;;;;;4.20;3.80;;;35.00;78.70;;;;;;5113684;28;20505;-59
2022/06/30 10:23:09;;;;;;;5.93;4.30;;;35.30;75.40;;;;;;5113725;28;20533;-59
2022/06/30 10:25:37;;;;;;;4.10;3.80;;;35.20;70.60;;;;;;5113899;28;20442;-59
2022/06/30 10:28:05;;;;;;;4.50;4.10;;;34.20;76.20;;;;;;5113679;28;20445;-59
2022/06/30 10:30:43;;;;;;;5.53;4.13;;;34.10;72.50;;;;;;5113643;28;20469;-59
2022/06/30 10:33:18;;;;;;;4.60;4.20;;;32.60;75.90;;;;;;5113543;28;20426;-59
2022/06/30 10:35:49;;;;;;;6.10;4.77;;;32.50;81.70;;;;;;5113526;28;20440;-58
2022/06/30 10:38:29;;;;;;;5.10;4.67;;;32.20;77.80;;;;;;5113358;28;20484;-58
2022/06/30 10:41:04;;;;;;;4.30;4.00;;;32.10;79.00;;;;;;5113408;28;20468;-59
2022/06/30 10:43:31;;;;;;;4.47;4.07;;;32.40;78.20;;;;;;5113225;28;20441;-59
2022/06/30 10:46:01;;;;;;;5.70;4.17;;;31.60;76.40;;;;;;5113293;28;20478;-59
2022/06/30 10:48:52;;;;;;;8.50;4.90;;;32.50;78.00;;;;;;5113374;28;21001;-59
2022/06/30 10:51:20;;;;;;;4.10;3.70;;;33.40;73.70;;;;;;5113435;28;20940;-59
2022/06/30 10:53:52;;;;;;;6.43;4.27;;;34.10;74.60;;;;;;5113303;28;20445;-59
2022/06/30 10:56:21;;;;;;;4.60;4.20;;;34.20;70.70;;;;;;5113245;28;20997;-59
2022/06/30 10:59:10;;;;;;;4.60;4.20;;;34.20;69.80;;;;;;5113053;28;20847;-59
2022/06/30 11:01:37;;;;;;;6.20;4.60;;;34.10;67.70;;;;;;5113384;28;20435;-59
2022/06/30 11:04:11;;;;;;;4.90;3.90;;;33.00;68.30;;;;;;5113499;28;20442;-59
2022/06/30 11:07:09;;;;;;;6.43;4.50;;;32.50;69.80;;;;;;5112891;28;20430;-59
2022/06/30 11:10:17;;;;;;;7.23;3.80;;;32.90;70.30;;;;;;5112871;28;20462;-59
2022/06/30 11:13:00;;;;;;;6.77;3.93;;;33.60;68.90;;;;;;5113198;28;20854;-58
2022/06/30 11:15:55;;;;;;;4.17;3.60;;;34.20;70.60;;;;;;5111397;28;20534;-59
2022/06/30 11:18:23;;;;;;;4.23;3.80;;;34.50;71.90;;;;;;5076942;28;21011;-59
2022/06/30 11:20:53;;;;;;;4.07;3.77;;;34.80;68.40;;;;;;5113119;28;20522;-59
2022/06/30 11:23:21;;;;;;;4.63;4.20;;;34.20;67.20;;;;;;5112750;28;20952;-59
2022/06/30 11:28:40;;;;;;;4.47;4.07;;;33.70;70.30;;;;;;5112948;28;20832;-58
2022/06/30 11:31:23;;;;;;;4.73;4.23;;;34.50;68.30;;;;;;5113025;28;20469;-57
2022/06/30 11:33:56;;;;;;;5.10;4.10;;;34.80;71.70;;;;;;5115366;28;20465;-58
2022/06/30 11:36:25;;;;;;;4.47;3.70;;;34.30;68.90;;;;;;5116584;28;20432;-58
2022/06/30 11:38:57;;;;;;;4.60;4.30;;;34.20;68.70;;;;;;5117128;28;20485;-58
2022/06/30 11:44:12;;;;;;;5.33;4.00;;;34.70;66.10;;;;;;5116606;28;20410;-58
2022/06/30 11:46:50;;;;;;;4.40;3.60;;;35.00;65.40;;;;;;5116628;28;20999;-58
2022/06/30 11:49:17;;;;;;;6.80;4.40;;;35.50;66.80;;;;;;5116521;28;20552;-58
2022/06/30 11:51:46;;;;;;;4.20;3.90;;;35.20;63.30;;;;;;5116731;28;20461;-58
2022/06/30 11:54:15;;;;;;;4.63;4.10;;;35.00;64.70;;;;;;5116317;28;20974;-58
2022/06/30 11:56:46;;;;;;;4.73;4.33;;;35.20;65.50;;;;;;5116343;28;20494;-58
2022/06/30 11:59:14;;;;;;;4.33;4.00;;;35.30;65.10;;;;;;5115938;28;20567;-58
2022/06/30 12:01:42;;;;;;;4.80;4.33;;;35.40;64.60;;;;;;5116559;28;20426;-58
2022/06/30 12:04:16;;;;;;;4.47;4.07;;;35.30;64.50;;;;;;5116107;28;20450;-58
2022/06/30 12:06:44;;;;;;;5.67;4.20;;;34.80;64.00;;;;;;5116236;28;20975;-58
2022/06/30 12:09:13;;;;;;;4.03;3.70;;;35.00;65.10;;;;;;5116727;28;20462;-58
2022/06/30 12:11:40;;;;;;;4.40;4.10;;;35.30;65.60;;;;;;5116092;28;20441;-58
2022/06/30 12:14:08;;;;;;;7.50;4.63;;;34.70;64.70;;;;;;5116175;28;20474;-58
2022/06/30 12:16:36;;;;;;;5.17;4.67;;;34.10;67.60;;;;;;5116104;28;20433;-58
2022/06/30 12:19:03;;;;;;;7.07;4.13;;;34.50;64.80;;;;;;5116235;28;20526;-58
2022/06/30 12:21:31;;;;;;;4.30;3.90;;;34.60;63.90;;;;;;5116404;28;20450;-58
2022/06/30 12:23:58;;;;;;;4.93;3.90;;;34.80;64.20;;;;;;5116037;28;20537;-57
2022/06/30 12:26:26;;;;;;;4.20;3.77;;;34.60;63.70;;;;;;5116068;28;20938;-58
2022/06/30 12:28:55;;;;;;;5.77;4.23;;;34.60;63.30;;;;;;5116023;28;20504;-57
2022/06/30 12:31:27;;;;;;;4.33;3.73;;;34.90;62.00;;;;;;5116182;28;20473;-58
2022/06/30 12:33:56;;;;;;;3.93;3.63;;;34.70;61.90;;;;;;5115738;28;20468;-58
2022/06/30 12:36:23;;;;;;;4.00;3.47;;;34.80;60.70;;;;;;5115731;28;20446;-58
2022/06/30 12:38:51;;;;;;;4.20;3.80;;;34.70;61.20;;;;;;5115623;28;20838;-58
2022/06/30 12:41:18;;;;;;;4.23;3.93;;;34.50;60.70;;;;;;5115966;28;20470;-58
2022/06/30 12:43:50;;;;;;;4.00;3.70;;;34.50;59.90;;;;;;5115835;28;20629;-58
2022/06/30 12:46:18;;;;;;;4.70;3.60;;;34.40;61.10;;;;;;5115896;28;20432;-58
2022/06/30 12:48:48;;;;;;;4.57;3.93;;;34.00;59.90;;;;;;5115844;28;20466;-58
2022/06/30 12:51:17;;;;;;;4.53;4.13;;;33.40;60.00;;;;;;5115490;28;20462;-57
2022/06/30 12:53:46;;;;;;;4.53;4.13;;;33.50;60.60;;;;;;5115298;28;20442;-58
2022/06/30 12:56:17;;;;;;;4.73;3.80;;;33.90;63.60;;;;;;5115479;27;20887;-58
2022/06/30 12:58:55;;;;;;;8.40;4.20;;;33.90;62.20;;;;;;5115305;28;20462;-58
2022/06/30 13:01:24;;;;;;;5.00;4.50;;;33.50;61.80;;;;;;5115247;28;20519;-58
2022/06/30 13:03:58;;;;;;;4.03;3.73;;;33.90;62.40;;;;;;5115164;28;20442;-58
2022/06/30 13:06:26;;;;;;;4.97;4.43;;;34.20;60.90;;;;;;5115231;28;20427;-57
2022/06/30 13:08:54;;;;;;;5.43;4.60;;;33.90;61.70;;;;;;5115717;28;20466;-57
2022/06/30 13:11:25;;;;;;;5.17;4.23;;;33.00;63.70;;;;;;5115093;28;20986;-57
2022/06/30 13:13:55;;;;;;;6.70;3.90;;;33.00;63.70;;;;;;5115321;28;20481;-58
2022/06/30 13:16:24;;;;;;;4.70;4.30;;;33.30;63.80;;;;;;5115175;28;20434;-58